createdAt,value
2023-04-18T00:01:28.881Z,13.86
2023-04-18T00:03:57.965Z,14.55
2023-04-18T00:06:25.898Z,14.63
2023-04-18T00:08:53.566Z,14.86
2023-04-18T00:11:21.248Z,14.61
2023-04-18T00:13:48.905Z,15.14
2023-04-18T00:16:16.537Z,15.24
2023-04-18T00:18:45.578Z,15.95
2023-04-18T00:21:13.386Z,16.06
2023-04-18T00:23:41.679Z,16.42
2023-04-18T00:26:09.364Z,15.32
2023-04-18T00:28:37.841Z,15.04
2023-04-18T00:31:05.586Z,13.62
2023-04-18T00:33:33.253Z,15.60
2023-04-18T00:36:02.229Z,16.01
2023-04-18T00:38:29.845Z,15.87
2023-04-18T00:40:57.454Z,15.26
2023-04-18T00:43:25.151Z,16.44
2023-04-18T00:45:53.981Z,15.22
2023-04-18T00:48:21.637Z,15.04
2023-04-18T00:50:49.252Z,14.68
2023-04-18T00:53:18.586Z,15.55
2023-04-18T00:55:46.417Z,14.64
2023-04-18T00:58:14.089Z,14.54
2023-04-18T01:00:42.577Z,14.81
2023-04-18T01:03:14.503Z,15.43
2023-04-18T01:05:42.299Z,14.73
2023-04-18T01:08:09.954Z,15.27
2023-04-18T01:10:41.709Z,16.02
2023-04-18T01:13:13.150Z,15.40
2023-04-18T01:15:41.311Z,15.25
2023-04-18T01:18:09.485Z,15.69
2023-04-18T01:20:38.120Z,14.37
2023-04-18T01:23:05.873Z,15.07
2023-04-18T01:25:37.364Z,14.56
2023-04-18T01:28:07.159Z,14.70
2023-04-18T01:30:35.091Z,15.30
2023-04-18T01:33:03.162Z,15.28
2023-04-18T01:35:31.134Z,15.12
2023-04-18T01:37:58.887Z,15.22
2023-04-18T01:40:28.235Z,15.25
2023-04-18T01:42:57.193Z,15.15
2023-04-18T01:45:24.956Z,14.42
2023-04-18T01:47:52.598Z,14.71
2023-04-18T01:50:20.252Z,14.91
2023-04-18T01:52:48.672Z,13.59
2023-04-18T01:55:16.979Z,14.44
2023-04-18T01:57:45.124Z,14.41
2023-04-18T02:00:14.989Z,14.42
2023-04-18T02:02:42.764Z,15.12
2023-04-18T02:05:10.710Z,14.15
2023-04-18T02:07:39.832Z,13.98
2023-04-18T02:10:08.718Z,15.09
2023-04-18T02:12:36.330Z,14.64
2023-04-18T02:15:04.109Z,14.52
2023-04-18T02:17:37.758Z,14.71
2023-04-18T02:20:08.002Z,14.48
2023-04-18T02:22:35.623Z,14.25
2023-04-18T02:25:03.333Z,14.68
2023-04-18T02:27:30.959Z,14.26
2023-04-18T02:29:58.654Z,14.73
2023-04-18T02:32:26.297Z,15.04
2023-04-18T02:34:55.314Z,15.12
2023-04-18T02:37:22.931Z,14.01
2023-04-18T02:39:50.933Z,15.07
2023-04-18T02:42:18.588Z,15.50
2023-04-18T02:44:46.226Z,14.89
2023-04-18T02:47:13.971Z,15.47
2023-04-18T02:49:45.217Z,14.92
2023-04-18T02:52:14.261Z,14.20
2023-04-18T02:54:41.835Z,13.47
2023-04-18T02:57:14.576Z,14.09
2023-04-18T03:00:00.285Z,15.25
2023-04-18T03:02:46.621Z,14.62
2023-04-18T03:05:46.391Z,14.83
2023-04-18T03:08:16.212Z,14.84
2023-04-18T03:10:44.149Z,15.44
2023-04-18T03:13:11.942Z,16.85
2023-04-18T03:15:40.475Z,14.89
2023-04-18T03:18:09.157Z,13.83
2023-04-18T03:20:40.887Z,14.25
2023-04-18T03:23:09.023Z,13.73
2023-04-18T03:25:38.159Z,14.15
2023-04-18T03:28:06.306Z,15.27
2023-04-18T03:30:35.219Z,15.29
2023-04-18T03:33:05.170Z,14.87
2023-04-18T03:35:33.452Z,13.66
2023-04-18T03:38:01.174Z,13.47
2023-04-18T03:40:31.820Z,13.94
2023-04-18T03:43:07.311Z,13.68
2023-04-18T03:45:35.418Z,13.81
2023-04-18T03:48:03.341Z,14.21
2023-04-18T03:50:42.181Z,14.40
2023-04-18T03:53:11.266Z,13.70
2023-04-18T03:55:39.927Z,14.46
2023-04-18T03:58:10.437Z,14.54
2023-04-18T04:00:39.832Z,14.79
2023-04-18T04:03:11.569Z,14.92
2023-04-18T04:05:40.771Z,14.78
2023-04-18T04:08:08.471Z,14.12
2023-04-18T04:10:36.123Z,14.47
2023-04-18T04:13:04.010Z,13.33
2023-04-18T04:15:34.852Z,13.66
2023-04-18T04:18:06.684Z,14.46
2023-04-18T04:20:36.957Z,13.87
2023-04-18T04:23:11.869Z,13.97
2023-04-18T04:25:40.776Z,14.66
2023-04-18T04:28:17.111Z,14.00
2023-04-18T04:30:55.453Z,15.27
2023-04-18T04:33:25.064Z,14.37
2023-04-18T04:35:55.035Z,13.20
2023-04-18T04:38:23.988Z,13.70
2023-04-18T04:40:54.040Z,14.77
2023-04-18T04:43:21.999Z,14.45
2023-04-18T04:45:51.469Z,14.88
2023-04-18T04:48:25.032Z,13.96
2023-04-18T04:50:54.881Z,14.38
2023-04-18T04:53:22.832Z,14.95
2023-04-18T04:55:50.967Z,13.57
2023-04-18T04:58:19.010Z,14.14
2023-04-18T05:01:19.190Z,15.69
2023-04-18T05:03:49.816Z,14.98
2023-04-18T05:06:20.505Z,15.44
2023-04-18T05:08:48.274Z,13.86
2023-04-18T05:11:16.016Z,14.18
2023-04-18T05:13:43.696Z,13.75
2023-04-18T05:16:11.401Z,14.52
2023-04-18T05:18:41.008Z,14.98
2023-04-18T05:21:10.002Z,14.79
2023-04-18T05:23:37.666Z,15.48
2023-04-18T05:26:05.452Z,14.39
2023-04-18T05:28:33.285Z,14.67
2023-04-18T05:31:02.156Z,14.69
2023-04-18T05:33:30.039Z,15.25
2023-04-18T05:35:57.916Z,14.56
2023-04-18T05:38:27.934Z,15.63
2023-04-18T05:41:00.586Z,16.04
2023-04-18T05:43:30.929Z,14.12
2023-04-18T05:45:58.907Z,14.12
2023-04-18T05:48:27.426Z,15.12
2023-04-18T05:50:59.457Z,14.21
2023-04-18T05:53:44.111Z,17.48
2023-04-18T05:56:12.732Z,14.00
2023-04-18T05:58:41.024Z,14.16
2023-04-18T06:01:12.935Z,13.52
2023-04-18T06:03:41.891Z,16.04
2023-04-18T06:06:10.536Z,13.44
2023-04-18T06:08:41.163Z,14.28
2023-04-18T06:11:11.580Z,14.51
2023-04-18T06:13:39.928Z,15.32
2023-04-18T06:16:10.709Z,17.12
2023-04-18T06:18:39.117Z,15.52
2023-04-18T06:21:07.268Z,15.78
2023-04-18T06:23:35.187Z,16.55
2023-04-18T06:26:04.202Z,14.90
2023-04-18T06:28:31.842Z,15.77
2023-04-18T06:30:59.499Z,15.86
2023-04-18T06:33:27.161Z,16.70
2023-04-18T06:35:54.819Z,16.17
2023-04-18T06:38:22.460Z,14.74
2023-04-18T06:40:50.066Z,15.67
2023-04-18T06:43:19.027Z,16.88
2023-04-18T06:45:46.750Z,14.89
2023-04-18T06:48:14.413Z,13.66
2023-04-18T06:50:42.160Z,17.49
2023-04-18T06:53:09.878Z,15.86
2023-04-18T06:55:37.606Z,16.94
2023-04-18T06:58:05.713Z,17.11
2023-04-18T07:00:35.099Z,16.46
2023-04-18T07:03:06.583Z,15.72
2023-04-18T07:05:34.713Z,14.08
2023-04-18T07:08:02.347Z,13.83
2023-04-18T07:10:30.413Z,14.54
2023-04-18T07:12:58.036Z,16.11
2023-04-18T07:15:25.702Z,16.03
2023-04-18T07:17:54.747Z,14.87
2023-04-18T07:20:22.438Z,17.41
2023-04-18T07:22:50.140Z,16.41
2023-04-18T07:25:17.730Z,18.19
2023-04-18T07:27:45.501Z,16.80
2023-04-18T07:30:13.527Z,18.25
2023-04-18T07:32:41.305Z,18.63
2023-04-18T07:35:10.920Z,15.57
2023-04-18T07:37:38.545Z,15.64
2023-04-18T07:40:06.852Z,15.40
2023-04-18T07:42:34.674Z,16.92
2023-04-18T07:45:02.395Z,18.57
2023-04-18T07:47:31.219Z,18.39
2023-04-18T07:49:59.559Z,17.15
2023-04-18T07:52:28.775Z,17.38
2023-04-18T07:54:56.400Z,18.02
2023-04-18T07:57:24.077Z,17.69
2023-04-18T07:59:53.761Z,17.54
2023-04-18T08:02:22.921Z,19.00
2023-04-18T08:04:52.172Z,19.95
2023-04-18T08:07:19.979Z,17.85
2023-04-18T08:09:49.295Z,18.32
2023-04-18T08:12:17.012Z,20.51
2023-04-18T08:14:44.720Z,19.75
2023-04-18T08:17:12.494Z,18.98
2023-04-18T08:19:40.164Z,20.14
2023-04-18T08:22:08.512Z,20.18
2023-04-18T08:24:36.297Z,19.05
2023-04-18T08:27:05.394Z,18.43
2023-04-18T08:29:33.099Z,17.97
2023-04-18T08:32:00.930Z,18.28
2023-04-18T08:34:29.362Z,16.70
2023-04-18T08:36:57.218Z,16.77
2023-04-18T08:39:25.374Z,19.39
2023-04-18T08:41:54.849Z,18.43
2023-04-18T08:44:24.497Z,17.39
2023-04-18T08:46:52.744Z,17.58
2023-04-18T08:49:22.592Z,16.58
2023-04-18T08:51:50.960Z,16.31
2023-04-18T08:54:19.130Z,19.58
2023-04-18T08:56:46.859Z,20.08
2023-04-18T08:59:14.736Z,20.54
2023-04-18T09:01:56.495Z,17.50
2023-04-18T09:04:34.306Z,17.24
2023-04-18T09:07:02.388Z,17.64
2023-04-18T09:09:40.454Z,18.31
2023-04-18T09:12:08.702Z,19.10
2023-04-18T09:14:37.569Z,17.09
2023-04-18T09:17:07.023Z,19.18
2023-04-18T09:19:35.093Z,19.26
2023-04-18T09:22:04.564Z,18.57
2023-04-18T09:24:34.338Z,20.12
2023-04-18T09:27:04.019Z,18.66
2023-04-18T09:29:47.494Z,21.64
2023-04-18T09:32:25.030Z,17.33
2023-04-18T09:34:54.336Z,19.37
2023-04-18T09:37:22.840Z,17.17
2023-04-18T09:39:51.826Z,21.36
2023-04-18T09:42:19.699Z,19.67
2023-04-18T09:45:04.757Z,19.47
2023-04-18T09:47:35.104Z,18.92
2023-04-18T09:50:03.776Z,20.11
2023-04-18T09:52:33.592Z,18.45
2023-04-18T09:55:01.217Z,20.17
2023-04-18T09:57:29.730Z,20.26
2023-04-18T10:00:00.408Z,19.75
2023-04-18T10:02:28.105Z,20.97
2023-04-18T10:04:57.191Z,21.28
2023-04-18T10:07:24.941Z,20.86
2023-04-18T10:09:52.691Z,21.42
2023-04-18T10:12:20.596Z,20.68
2023-04-18T10:14:48.241Z,21.81
2023-04-18T10:17:15.984Z,20.38
2023-04-18T10:19:46.053Z,22.58
2023-04-18T10:22:15.130Z,21.41
2023-04-18T10:24:49.811Z,21.85
2023-04-18T10:27:18.003Z,19.84
2023-04-18T10:29:49.562Z,19.12
2023-04-18T10:32:17.552Z,22.10
2023-04-18T10:34:45.415Z,22.42
2023-04-18T10:37:13.938Z,23.74
2023-04-18T10:39:55.252Z,22.00
2023-04-18T10:42:32.714Z,21.81
2023-04-18T10:45:23.136Z,21.45
2023-04-18T10:47:51.206Z,22.84
2023-04-18T10:52:46.479Z,21.86
2023-04-18T10:55:17.090Z,21.63
2023-04-18T10:57:45.614Z,22.05
2023-04-18T11:00:14.019Z,20.45
2023-04-18T11:02:42.446Z,22.66
2023-04-18T11:05:10.838Z,22.07
2023-04-18T11:07:39.221Z,22.99
2023-04-18T11:10:07.563Z,22.93
2023-04-18T11:12:36.976Z,21.38
2023-04-18T11:15:05.355Z,22.39
2023-04-18T11:17:34.743Z,22.11
2023-04-18T11:20:05.850Z,22.58
2023-04-18T11:22:33.622Z,21.25
2023-04-18T11:25:01.847Z,22.80
2023-04-18T11:27:30.295Z,22.83
2023-04-18T11:29:59.293Z,23.16
2023-04-18T11:32:26.966Z,22.39
2023-04-18T11:34:55.002Z,21.60
2023-04-18T11:37:23.032Z,20.85
2023-04-18T11:39:51.779Z,20.40
2023-04-18T11:42:19.425Z,20.63
2023-04-18T11:44:47.344Z,19.27
2023-04-18T11:47:32.958Z,18.72
2023-04-18T11:50:02.821Z,19.87
2023-04-18T11:52:30.924Z,19.77
2023-04-18T11:54:59.290Z,20.34
2023-04-18T11:57:27.477Z,19.39
2023-04-18T11:59:56.181Z,20.39
2023-04-18T12:02:24.502Z,19.16
2023-04-18T12:04:56.410Z,21.93
2023-04-18T12:07:36.121Z,21.98
2023-04-18T12:10:04.085Z,23.28
2023-04-18T12:12:31.701Z,23.25
2023-04-18T12:15:03.027Z,24.30
2023-04-18T12:17:30.812Z,23.69
2023-04-18T12:20:01.948Z,21.11
2023-04-18T12:22:43.965Z,23.03
2023-04-18T12:25:14.242Z,21.45
2023-04-18T12:27:48.059Z,19.50
2023-04-18T12:30:15.822Z,20.31
2023-04-18T12:32:44.894Z,21.99
2023-04-18T12:35:12.605Z,23.25
2023-04-18T12:37:40.260Z,22.65
2023-04-18T12:40:10.894Z,22.42
2023-04-18T12:42:38.538Z,23.11
2023-04-18T12:45:07.738Z,22.30
2023-04-18T12:47:35.618Z,21.93
2023-04-18T12:50:03.313Z,21.65
2023-04-18T12:52:31.611Z,21.45
2023-04-18T12:54:59.297Z,22.31
2023-04-18T12:57:29.976Z,22.48
2023-04-18T12:59:59.307Z,22.30
2023-04-18T13:02:29.050Z,21.96
2023-04-18T13:04:56.962Z,22.62
2023-04-18T13:07:24.697Z,20.87
2023-04-18T13:09:52.419Z,23.38
2023-04-18T13:12:19.981Z,24.39
2023-04-18T13:14:49.031Z,24.02
2023-04-18T13:17:16.652Z,23.92
2023-04-18T13:19:44.364Z,21.90
2023-04-18T13:22:12.081Z,22.11
2023-04-18T13:24:39.851Z,21.34
2023-04-18T13:27:10.581Z,22.83
2023-04-18T13:29:39.128Z,21.57
2023-04-18T13:32:08.477Z,21.02
2023-04-18T13:34:37.914Z,22.58
2023-04-18T13:37:05.810Z,23.40
2023-04-18T13:39:33.816Z,24.44
2023-04-18T13:42:02.938Z,22.10
2023-04-18T13:44:30.612Z,22.68
2023-04-18T13:46:58.334Z,22.56
2023-04-18T13:49:27.395Z,24.38
2023-04-18T13:51:57.681Z,24.64
2023-04-18T13:54:26.599Z,23.47
2023-04-18T13:56:54.526Z,24.62
2023-04-18T13:59:22.400Z,23.54
2023-04-18T14:01:50.096Z,21.82
2023-04-18T14:04:18.172Z,22.53
2023-04-18T14:06:48.831Z,23.48
2023-04-18T14:09:17.280Z,22.72
2023-04-18T14:11:45.962Z,22.11
2023-04-18T14:14:13.854Z,21.92
2023-04-18T14:16:41.586Z,22.23
2023-04-18T14:19:09.253Z,23.15
2023-04-18T14:21:37.620Z,22.12
2023-04-18T14:24:07.634Z,24.22
2023-04-18T14:26:35.632Z,22.21
2023-04-18T14:29:04.281Z,21.91
2023-04-18T14:31:31.940Z,21.78
2023-04-18T14:33:59.617Z,23.66
2023-04-18T14:36:27.653Z,22.22
2023-04-18T14:38:55.483Z,23.12
2023-04-18T14:41:24.440Z,23.69
2023-04-18T14:43:52.053Z,22.92
2023-04-18T14:46:19.739Z,25.29
2023-04-18T14:48:47.634Z,24.05
2023-04-18T14:51:15.623Z,23.78
2023-04-18T14:53:43.317Z,22.54
2023-04-18T14:56:10.979Z,21.94
2023-04-18T14:58:40.069Z,23.90
2023-04-18T15:01:07.706Z,25.23
2023-04-18T15:03:35.561Z,23.77
2023-04-18T15:06:03.293Z,24.13
2023-04-18T15:08:32.763Z,24.74
2023-04-18T15:11:01.053Z,21.60
2023-04-18T15:13:28.778Z,21.03
2023-04-18T15:15:57.814Z,22.41
2023-04-18T15:18:25.448Z,20.93
2023-04-18T15:20:53.688Z,23.52
2023-04-18T15:23:21.473Z,23.58
2023-04-18T15:25:49.075Z,24.05
2023-04-18T15:28:18.229Z,25.64
2023-04-18T15:30:45.823Z,21.70
2023-04-18T15:33:15.727Z,21.80
2023-04-18T15:35:43.323Z,21.32
2023-04-18T15:38:11.007Z,20.30
2023-04-18T15:40:38.648Z,20.18
2023-04-18T15:43:06.272Z,20.13
2023-04-18T15:45:34.074Z,19.67
2023-04-18T15:48:02.130Z,21.43
2023-04-18T15:50:33.225Z,20.13
2023-04-18T15:53:01.498Z,19.05
2023-04-18T15:55:29.240Z,20.58
2023-04-18T15:57:56.924Z,21.05
2023-04-18T16:00:24.627Z,20.25
2023-04-18T16:02:52.398Z,21.35
2023-04-18T16:05:20.225Z,21.87
2023-04-18T16:07:49.237Z,23.42
2023-04-18T16:10:16.904Z,23.64
2023-04-18T16:12:44.971Z,22.32
2023-04-18T16:15:13.163Z,21.27
2023-04-18T16:17:40.788Z,21.41
2023-04-18T16:20:09.407Z,23.74
2023-04-18T16:22:37.116Z,22.53
2023-04-18T16:25:06.710Z,22.58
2023-04-18T16:27:34.384Z,22.25
2023-04-18T16:30:02.148Z,19.94
2023-04-18T16:32:29.963Z,19.82
2023-04-18T16:34:57.815Z,19.17
2023-04-18T16:37:25.538Z,20.03
2023-04-18T16:39:53.147Z,19.88
2023-04-18T16:42:22.158Z,22.02
2023-04-18T16:44:49.840Z,22.00
2023-04-18T16:47:17.578Z,22.47
2023-04-18T16:49:46.603Z,21.04
2023-04-18T16:52:14.371Z,21.64
2023-04-18T16:54:42.018Z,22.63
2023-04-18T16:57:09.683Z,21.20
2023-04-18T16:59:38.728Z,20.46
2023-04-18T17:02:06.881Z,19.52
2023-04-18T17:04:34.576Z,20.74
2023-04-18T17:07:02.372Z,22.37
2023-04-18T17:09:30.109Z,21.85
2023-04-18T17:11:57.882Z,22.02
2023-04-18T17:14:25.515Z,21.47
2023-04-18T17:16:54.514Z,20.32
2023-04-18T17:19:22.356Z,19.87
2023-04-18T17:21:50.890Z,20.14
2023-04-18T17:24:18.781Z,20.43
2023-04-18T17:26:46.433Z,18.44
2023-04-18T17:29:14.233Z,20.96
2023-04-18T17:31:42.103Z,18.83
2023-04-18T17:34:11.113Z,19.46
2023-04-18T17:36:38.729Z,19.06
2023-04-18T17:39:06.581Z,18.60
2023-04-18T17:41:36.119Z,20.18
2023-04-18T17:44:03.736Z,18.05
2023-04-18T17:46:31.705Z,19.66
2023-04-18T17:48:59.365Z,18.95
2023-04-18T17:51:28.439Z,18.98
2023-04-18T17:53:56.340Z,19.04
2023-04-18T17:56:24.037Z,20.17
2023-04-18T17:58:51.826Z,18.92
2023-04-18T18:01:20.511Z,18.66
2023-04-18T18:03:48.694Z,18.51
2023-04-18T18:06:16.543Z,19.30
2023-04-18T18:08:45.598Z,20.13
2023-04-18T18:11:13.280Z,20.31
2023-04-18T18:13:41.010Z,21.70
2023-04-18T18:16:08.821Z,19.75
2023-04-18T18:18:36.826Z,20.49
2023-04-18T18:21:04.694Z,17.96
2023-04-18T18:23:32.339Z,20.66
2023-04-18T18:26:01.327Z,20.86
2023-04-18T18:28:29.038Z,21.23
2023-04-18T18:30:57.043Z,19.29
2023-04-18T18:33:24.736Z,18.06
2023-04-18T18:35:52.350Z,18.04
2023-04-18T18:38:19.983Z,17.56
2023-04-18T18:40:47.545Z,18.23
2023-04-18T18:43:16.557Z,18.53
2023-04-18T18:45:44.183Z,19.29
2023-04-18T18:48:12.059Z,19.83
2023-04-18T18:50:41.805Z,18.44
2023-04-18T18:53:09.980Z,19.89
2023-04-18T18:55:37.695Z,18.89
2023-04-18T18:58:07.745Z,18.31
2023-04-18T19:00:36.748Z,17.76
2023-04-18T19:03:04.867Z,18.29
2023-04-18T19:05:32.540Z,16.33
2023-04-18T19:08:03.962Z,17.66
2023-04-18T19:10:31.766Z,16.79
2023-04-18T19:13:00.187Z,17.13
2023-04-18T19:15:27.794Z,17.25
2023-04-18T19:17:56.803Z,17.48
2023-04-18T19:20:24.475Z,19.00
2023-04-18T19:22:52.031Z,18.16
2023-04-18T19:25:19.650Z,17.53
2023-04-18T19:27:47.303Z,19.77
2023-04-18T19:30:14.996Z,17.65
2023-04-18T19:32:43.096Z,17.02
2023-04-18T19:35:13.283Z,16.41
2023-04-18T19:37:41.056Z,17.25
2023-04-18T19:40:09.457Z,17.57
2023-04-18T19:42:37.287Z,16.69
2023-04-18T19:45:05.419Z,18.61
2023-04-18T19:47:33.944Z,15.18
2023-04-18T19:50:01.748Z,17.04
2023-04-18T19:52:30.800Z,18.05
2023-04-18T19:54:58.555Z,16.71
2023-04-18T19:57:27.649Z,16.48
2023-04-18T19:59:55.669Z,15.15
2023-04-18T20:02:23.434Z,16.22
2023-04-18T20:04:51.294Z,16.84
2023-04-18T20:07:19.193Z,16.96
2023-04-18T20:09:48.572Z,16.94
2023-04-18T20:12:16.206Z,17.82
2023-04-18T20:14:45.143Z,16.51
2023-04-18T20:17:12.885Z,15.67
2023-04-18T20:19:41.278Z,16.88
2023-04-18T20:22:08.958Z,16.44
2023-04-18T20:24:39.139Z,15.39
2023-04-18T20:27:08.551Z,16.88
2023-04-18T20:29:36.375Z,15.71
2023-04-18T20:32:04.010Z,16.35
2023-04-18T20:34:32.059Z,16.21
2023-04-18T20:37:00.002Z,16.67
2023-04-18T20:39:28.119Z,14.49
2023-04-18T20:41:57.535Z,15.61
2023-04-18T20:44:27.607Z,15.50
2023-04-18T20:46:55.209Z,15.52
2023-04-18T20:49:23.133Z,16.76
2023-04-18T20:51:50.712Z,16.36
2023-04-18T20:54:18.381Z,15.74
2023-04-18T20:56:46.136Z,16.26
2023-04-18T20:59:13.762Z,17.30
2023-04-18T21:01:42.789Z,16.11
2023-04-18T21:04:10.564Z,15.02
2023-04-18T21:06:38.254Z,16.34
2023-04-18T21:09:06.466Z,15.40
2023-04-18T21:11:34.086Z,17.24
2023-04-18T21:14:03.616Z,16.89
2023-04-18T21:16:31.312Z,15.79
2023-04-18T21:19:00.362Z,13.77
2023-04-18T21:21:28.307Z,15.27
2023-04-18T21:23:55.967Z,16.12
2023-04-18T21:26:23.619Z,14.23
2023-04-18T21:28:55.267Z,15.41
2023-04-18T21:31:23.063Z,13.97
2023-04-18T21:33:52.735Z,13.98
2023-04-18T21:36:21.765Z,15.41
2023-04-18T21:38:49.431Z,16.11
2023-04-18T21:41:17.728Z,15.18
2023-04-18T21:43:45.524Z,14.90
2023-04-18T21:46:13.407Z,13.81
2023-04-18T21:48:41.556Z,14.86
2023-04-18T21:51:09.290Z,14.28
2023-04-18T21:53:38.435Z,15.05
2023-04-18T21:56:06.262Z,13.52
2023-04-18T21:58:34.019Z,15.88
2023-04-18T22:01:01.737Z,14.18
2023-04-18T22:03:29.717Z,14.69
2023-04-18T22:05:57.519Z,14.29
2023-04-18T22:08:25.866Z,12.91
2023-04-18T22:10:56.007Z,14.26
2023-04-18T22:13:23.809Z,14.96
2023-04-18T22:15:51.531Z,13.32
2023-04-18T22:18:19.622Z,13.86
2023-04-18T22:20:47.799Z,13.16
2023-04-18T22:23:15.413Z,15.43
2023-04-18T22:25:42.992Z,14.07
2023-04-18T22:28:12.019Z,14.47
2023-04-18T22:30:39.667Z,12.63
2023-04-18T22:33:07.340Z,13.30
2023-04-18T22:35:35.018Z,13.31
2023-04-18T22:38:02.696Z,12.14
2023-04-18T22:40:30.310Z,13.35
2023-04-18T22:42:57.951Z,13.71
2023-04-18T22:45:27.005Z,15.60
2023-04-18T22:47:54.746Z,14.89
2023-04-18T22:50:22.444Z,13.25
2023-04-18T22:52:50.961Z,13.98
2023-04-18T22:55:19.877Z,12.59
2023-04-18T22:57:47.564Z,14.06
2023-04-18T23:00:15.499Z,13.88
2023-04-18T23:02:44.628Z,13.44
2023-04-18T23:05:12.392Z,12.48
2023-04-18T23:07:40.036Z,13.56
2023-04-18T23:10:08.307Z,14.89
2023-04-18T23:12:35.937Z,13.28
2023-04-18T23:15:03.654Z,15.64
2023-04-18T23:17:31.358Z,13.68
2023-04-18T23:20:00.442Z,14.17
2023-04-18T23:22:28.878Z,13.92
2023-04-18T23:24:56.498Z,14.61
2023-04-18T23:27:24.139Z,15.55
2023-04-18T23:29:51.808Z,13.98
2023-04-18T23:32:19.454Z,12.98
2023-04-18T23:34:47.170Z,14.32
2023-04-18T23:37:16.373Z,14.60
2023-04-18T23:39:43.959Z,13.12
2023-04-18T23:42:11.598Z,13.13
2023-04-18T23:44:39.178Z,12.46
2023-04-18T23:47:06.874Z,13.98
2023-04-18T23:49:34.484Z,13.37
2023-04-18T23:52:02.178Z,14.60
2023-04-18T23:54:31.238Z,15.28
2023-04-18T23:56:58.927Z,15.73
2023-04-18T23:59:26.741Z,14.11
